createdAt,value
2022-08-11T00:00:32.612Z,1.55
2022-08-11T00:01:05.826Z,1.95
2022-08-11T00:01:43.482Z,1.30
2022-08-11T00:02:15.877Z,1.48
2022-08-11T00:02:51.995Z,1.60
2022-08-11T00:03:24.376Z,1.70
2022-08-11T00:04:16.389Z,2.70
2022-08-11T00:04:49.347Z,1.65
2022-08-11T00:05:21.777Z,1.67
2022-08-11T00:05:55.450Z,1.88
2022-08-11T00:06:29.718Z,2.42
2022-08-11T00:07:03.190Z,1.63
2022-08-11T00:07:41.257Z,1.70
2022-08-11T00:08:23.923Z,1.90
2022-08-11T00:08:57.383Z,1.60
2022-08-11T00:09:38.985Z,2.50
2022-08-11T00:10:16.230Z,1.60
2022-08-11T00:10:51.947Z,1.70
2022-08-11T00:11:37.758Z,1.48
2022-08-11T00:12:17.003Z,2.03
2022-08-11T00:12:53.739Z,1.60
2022-08-11T00:13:45.503Z,1.50
2022-08-11T00:14:21.477Z,1.60
2022-08-11T00:14:57.664Z,1.70
2022-08-11T00:15:38.571Z,1.73
2022-08-11T00:16:20.914Z,1.65
2022-08-11T00:16:55.130Z,2.30
2022-08-11T00:17:28.454Z,1.67
2022-08-11T00:18:01.200Z,2.28
2022-08-11T00:18:41.169Z,1.50
2022-08-11T00:19:20.128Z,2.17
2022-08-11T00:20:16.758Z,1.80
2022-08-11T00:20:49.752Z,1.58
2022-08-11T00:21:32.537Z,1.50
2022-08-11T00:22:21.025Z,1.73
2022-08-11T00:22:53.210Z,1.38
2022-08-11T00:23:26.029Z,2.42
2022-08-11T00:23:59.974Z,1.60
2022-08-11T00:24:53.649Z,1.67
2022-08-11T00:25:28.263Z,2.25
2022-08-11T00:26:00.469Z,1.27
2022-08-11T00:26:33.055Z,1.50
2022-08-11T00:27:05.760Z,1.90
2022-08-11T00:27:39.394Z,1.63
2022-08-11T00:28:28.257Z,1.70
2022-08-11T00:29:08.328Z,1.60
2022-08-11T00:29:51.774Z,2.10
2022-08-11T00:30:24.193Z,2.10
2022-08-11T00:30:57.541Z,1.77
2022-08-11T00:31:31.234Z,1.67
2022-08-11T00:32:04.356Z,1.40
2022-08-11T00:32:38.000Z,1.60
2022-08-11T00:33:10.253Z,1.75
2022-08-11T00:33:45.105Z,1.60
2022-08-11T00:34:19.036Z,1.95
2022-08-11T00:34:51.166Z,1.70
2022-08-11T00:35:54.133Z,1.60
2022-08-11T00:36:48.386Z,1.45
2022-08-11T00:37:21.479Z,2.65
2022-08-11T00:37:54.618Z,1.50
2022-08-11T00:38:29.511Z,1.48
2022-08-11T00:39:04.064Z,1.95
2022-08-11T00:39:43.610Z,1.38
2022-08-11T00:40:20.015Z,3.80
2022-08-11T00:40:55.023Z,2.42
2022-08-11T00:41:33.010Z,1.83
2022-08-11T00:42:16.627Z,1.70
2022-08-11T00:42:54.747Z,1.40
2022-08-11T00:43:26.775Z,1.48
2022-08-11T00:44:17.346Z,1.50
2022-08-11T00:45:01.444Z,1.40
2022-08-11T00:45:40.494Z,1.40
2022-08-11T00:46:18.644Z,2.85
2022-08-11T00:47:03.464Z,1.45
2022-08-11T00:47:44.586Z,1.50
2022-08-11T00:48:29.917Z,1.40
2022-08-11T00:49:12.031Z,1.70
2022-08-11T00:50:02.827Z,1.30
2022-08-11T00:51:00.329Z,1.48
2022-08-11T00:52:04.217Z,1.50
2022-08-11T00:52:48.927Z,2.33
2022-08-11T00:53:26.563Z,2.35
2022-08-11T00:54:17.269Z,1.73
2022-08-11T00:54:52.010Z,1.45
2022-08-11T00:55:55.684Z,2.05
2022-08-11T00:56:30.888Z,1.70
2022-08-11T00:57:36.194Z,1.90
2022-08-11T00:58:09.719Z,1.77
2022-08-11T00:59:00.324Z,1.38
2022-08-11T00:59:52.079Z,1.95
2022-08-11T01:00:25.100Z,1.40
2022-08-11T01:00:57.095Z,1.55
2022-08-11T01:01:29.179Z,2.42
2022-08-11T01:02:13.843Z,1.63
2022-08-11T01:02:45.879Z,1.80
2022-08-11T01:03:18.272Z,1.52
2022-08-11T01:03:50.277Z,1.67
2022-08-11T01:04:28.189Z,1.42
2022-08-11T01:05:11.964Z,1.58
2022-08-11T01:05:56.489Z,1.50
2022-08-11T01:06:29.182Z,1.42
2022-08-11T01:07:15.558Z,1.63
2022-08-11T01:08:15.703Z,1.30
2022-08-11T01:09:06.320Z,1.40
2022-08-11T01:09:41.179Z,1.50
2022-08-11T01:10:13.176Z,1.48
2022-08-11T01:11:23.524Z,1.75
2022-08-11T01:12:07.113Z,1.70
2022-08-11T01:12:43.761Z,1.50
2022-08-11T01:13:34.271Z,2.03
2022-08-11T01:14:34.007Z,1.73
2022-08-11T01:15:06.822Z,1.30
2022-08-11T01:15:57.718Z,1.83
2022-08-11T01:16:38.758Z,1.33
2022-08-11T01:17:29.254Z,1.40
2022-08-11T01:18:19.599Z,1.98
2022-08-11T01:19:14.592Z,1.70
2022-08-11T01:20:43.557Z,2.58
2022-08-11T01:21:07.836Z,1.35
2022-08-11T01:21:58.350Z,1.80
2022-08-11T01:22:59.177Z,1.88
2022-08-11T01:23:49.697Z,1.58
2022-08-11T01:24:45.192Z,2.03
2022-08-11T01:25:26.198Z,1.45
2022-08-11T01:26:16.832Z,2.03
2022-08-11T01:27:18.843Z,1.10
2022-08-11T01:27:51.809Z,1.45
2022-08-11T01:28:29.981Z,1.73
2022-08-11T01:29:19.209Z,1.40
2022-08-11T01:29:51.256Z,1.60
2022-08-11T01:30:40.906Z,3.38
2022-08-11T01:31:31.391Z,1.58
2022-08-11T01:32:09.382Z,1.42
2022-08-11T01:32:59.968Z,1.42
2022-08-11T01:33:50.637Z,2.53
2022-08-11T01:34:41.708Z,1.48
2022-08-11T01:35:29.191Z,5.13
2022-08-11T01:36:20.704Z,1.30
2022-08-11T01:37:18.945Z,1.85
2022-08-11T01:38:02.853Z,2.13
2022-08-11T01:38:41.088Z,1.58
2022-08-11T01:39:24.854Z,1.60
2022-08-11T01:40:12.232Z,1.67
2022-08-11T01:40:53.118Z,1.58
2022-08-11T01:41:25.120Z,1.40
2022-08-11T01:42:40.404Z,1.95
2022-08-11T01:43:49.825Z,1.83
2022-08-11T01:44:48.318Z,1.42
2022-08-11T01:45:48.032Z,1.35
2022-08-11T01:46:26.714Z,2.15
2022-08-11T01:47:34.340Z,3.00
2022-08-11T01:48:09.514Z,1.77
2022-08-11T01:48:43.276Z,1.80
2022-08-11T01:49:59.681Z,1.42
2022-08-11T01:50:36.790Z,1.60
2022-08-11T01:51:31.849Z,1.48
2022-08-11T01:52:04.650Z,1.40
2022-08-11T01:52:43.131Z,3.20
2022-08-11T01:53:35.772Z,1.40
2022-08-11T01:54:24.496Z,1.77
2022-08-11T01:54:56.474Z,2.72
2022-08-11T01:55:33.762Z,1.95
2022-08-11T01:56:15.588Z,1.75
2022-08-11T01:56:58.768Z,1.30
2022-08-11T01:57:36.022Z,1.83
2022-08-11T01:58:39.481Z,1.50
2022-08-11T01:59:18.246Z,1.55
2022-08-11T01:59:57.231Z,1.50
2022-08-11T02:00:30.833Z,1.50
2022-08-11T02:01:16.257Z,1.88
2022-08-11T02:02:02.340Z,1.55
2022-08-11T02:02:47.499Z,1.50
2022-08-11T02:03:38.159Z,1.85
2022-08-11T02:04:18.077Z,1.60
2022-08-11T02:04:50.097Z,1.30
2022-08-11T02:05:34.093Z,1.50
2022-08-11T02:06:32.175Z,1.52
2022-08-11T02:07:10.346Z,2.15
2022-08-11T02:08:01.827Z,1.50
2022-08-11T02:08:41.126Z,1.50
2022-08-11T02:09:24.155Z,1.38
2022-08-11T02:10:35.306Z,1.60
2022-08-11T02:11:31.127Z,1.55
2022-08-11T02:12:33.786Z,1.52
2022-08-11T02:13:33.409Z,1.30
2022-08-11T02:14:14.718Z,1.65
2022-08-11T02:15:04.591Z,1.50
2022-08-11T02:15:45.072Z,1.73
2022-08-11T02:16:36.037Z,1.65
2022-08-11T02:17:17.633Z,1.52
2022-08-11T02:18:08.470Z,1.98
2022-08-11T02:19:00.515Z,1.70
2022-08-11T02:20:13.240Z,1.98
2022-08-11T02:21:04.108Z,1.70
2022-08-11T02:22:04.985Z,2.05
2022-08-11T02:23:14.677Z,1.38
2022-08-11T02:24:14.396Z,1.70
2022-08-11T02:24:53.403Z,2.08
2022-08-11T02:25:38.846Z,1.50
2022-08-11T02:26:10.955Z,1.55
2022-08-11T02:26:50.657Z,2.03
2022-08-11T02:27:25.152Z,1.30
2022-08-11T02:28:28.869Z,1.60
2022-08-11T02:29:10.603Z,1.83
2022-08-11T02:30:07.219Z,1.70
2022-08-11T02:30:42.871Z,1.50
2022-08-11T02:32:14.813Z,1.35
2022-08-11T02:33:11.949Z,1.30
2022-08-11T02:33:44.848Z,1.35
2022-08-11T02:34:19.759Z,1.52
2022-08-11T02:35:14.241Z,1.60
2022-08-11T02:35:58.142Z,1.40
2022-08-11T02:36:53.505Z,1.50
2022-08-11T02:37:37.463Z,1.58
2022-08-11T02:38:27.999Z,1.50
2022-08-11T02:38:59.994Z,2.15
2022-08-11T02:39:41.310Z,1.45
2022-08-11T02:40:25.132Z,2.00
2022-08-11T02:41:01.456Z,1.73
2022-08-11T02:42:35.105Z,1.80
2022-08-11T02:43:10.290Z,1.35
2022-08-11T02:43:51.126Z,2.45
2022-08-11T02:44:41.842Z,1.60
2022-08-11T02:45:32.480Z,1.40
2022-08-11T02:46:18.267Z,1.38
2022-08-11T02:47:08.628Z,1.55
2022-08-11T02:48:18.931Z,1.38
2022-08-11T02:49:29.547Z,1.50
2022-08-11T02:50:07.215Z,1.77
2022-08-11T02:50:49.966Z,1.48
2022-08-11T02:51:29.863Z,1.38
2022-08-11T02:52:01.813Z,1.50
2022-08-11T02:52:47.399Z,1.88
2022-08-11T02:53:25.113Z,1.38
2022-08-11T02:54:07.367Z,1.48
2022-08-11T02:54:44.610Z,1.73
2022-08-11T02:55:55.667Z,2.03
2022-08-11T02:56:38.340Z,1.40
2022-08-11T02:57:16.299Z,1.20
2022-08-11T02:57:54.796Z,1.60
2022-08-11T02:58:44.127Z,1.73
2022-08-11T02:59:47.482Z,1.40
2022-08-11T03:00:19.876Z,2.35
2022-08-11T03:01:11.650Z,1.90
2022-08-11T03:01:49.268Z,1.52
2022-08-11T03:02:35.368Z,1.20
2022-08-11T03:03:13.614Z,1.85
2022-08-11T03:03:53.491Z,1.58
2022-08-11T03:04:37.616Z,1.90
2022-08-11T03:05:10.655Z,1.52
2022-08-11T03:05:54.692Z,2.40
2022-08-11T03:06:35.644Z,2.33
2022-08-11T03:07:29.178Z,1.45
2022-08-11T03:08:08.937Z,1.30
2022-08-11T03:08:53.375Z,1.48
2022-08-11T03:09:29.872Z,1.50
2022-08-11T03:10:22.689Z,1.73
2022-08-11T03:11:16.126Z,1.88
2022-08-11T03:12:25.821Z,1.50
2022-08-11T03:13:33.367Z,1.73
2022-08-11T03:14:36.072Z,2.78
2022-08-11T03:15:46.180Z,1.67
2022-08-11T03:16:45.796Z,1.60
2022-08-11T03:17:40.896Z,1.75
2022-08-11T03:18:12.901Z,1.30
2022-08-11T03:18:49.376Z,1.40
2022-08-11T03:19:28.195Z,1.77
2022-08-11T03:20:04.619Z,1.58
2022-08-11T03:20:51.497Z,1.95
2022-08-11T03:21:52.349Z,1.42
2022-08-11T03:22:24.021Z,1.83
2022-08-11T03:23:24.231Z,1.73
2022-08-11T03:24:04.497Z,1.50
2022-08-11T03:24:42.511Z,1.55
2022-08-11T03:25:19.864Z,1.83
2022-08-11T03:25:58.712Z,1.45
2022-08-11T03:26:33.547Z,1.77
2022-08-11T03:27:10.982Z,1.52
2022-08-11T03:28:03.688Z,1.45
2022-08-11T03:28:53.939Z,1.40
2022-08-11T03:29:34.371Z,1.60
2022-08-11T03:30:10.450Z,1.50
2022-08-11T03:30:53.008Z,1.10
2022-08-11T03:31:28.072Z,1.40
2022-08-11T03:32:18.954Z,1.52
2022-08-11T03:33:10.954Z,1.50
2022-08-11T03:34:08.113Z,1.77
2022-08-11T03:34:41.507Z,1.88
2022-08-11T03:35:21.311Z,1.60
2022-08-11T03:36:12.490Z,1.77
2022-08-11T03:37:16.208Z,1.75
2022-08-11T03:38:00.649Z,1.73
2022-08-11T03:38:44.046Z,1.27
2022-08-11T03:39:31.111Z,1.30
2022-08-11T03:40:42.003Z,1.60
2022-08-11T03:42:01.513Z,2.40
2022-08-11T03:42:31.315Z,2.55
2022-08-11T03:43:07.912Z,2.50
2022-08-11T03:43:45.708Z,1.40
2022-08-11T03:44:33.760Z,1.30
2022-08-11T03:45:15.405Z,1.60
2022-08-11T03:45:47.402Z,1.52
2022-08-11T03:46:27.394Z,2.83
2022-08-11T03:47:05.332Z,1.38
2022-08-11T03:47:52.572Z,2.08
2022-08-11T03:48:45.854Z,1.65
2022-08-11T03:49:44.533Z,1.52
2022-08-11T03:50:34.922Z,1.73
2022-08-11T03:51:30.602Z,1.35
2022-08-11T03:52:33.516Z,1.95
2022-08-11T03:53:08.626Z,1.45
2022-08-11T03:53:59.159Z,1.42
2022-08-11T03:54:43.448Z,1.30
2022-08-11T03:55:30.608Z,2.10
2022-08-11T03:56:21.294Z,2.90
2022-08-11T03:57:03.286Z,1.40
2022-08-11T03:57:36.555Z,1.38
2022-08-11T03:58:14.395Z,1.38
2022-08-11T03:59:04.979Z,1.88
2022-08-11T03:59:56.524Z,1.88
2022-08-11T04:00:37.730Z,1.60
2022-08-11T04:01:21.886Z,1.45
2022-08-11T04:02:08.411Z,1.60
2022-08-11T04:02:55.374Z,1.50
2022-08-11T04:03:46.929Z,1.80
2022-08-11T04:04:18.928Z,1.60
2022-08-11T04:05:09.408Z,1.38
2022-08-11T04:05:47.224Z,1.63
2022-08-11T04:06:37.985Z,1.85
2022-08-11T04:07:17.564Z,1.70
2022-08-11T04:08:02.747Z,2.33
2022-08-11T04:08:43.801Z,1.67
2022-08-11T04:09:18.528Z,1.30
2022-08-11T04:10:17.386Z,2.47
2022-08-11T04:11:04.242Z,1.63
2022-08-11T04:11:42.229Z,1.52
2022-08-11T04:12:45.712Z,1.67
2022-08-11T04:13:19.479Z,1.30
2022-08-11T04:14:29.407Z,2.40
2022-08-11T04:15:32.366Z,2.10
2022-08-11T04:16:22.691Z,2.97
2022-08-11T04:17:06.830Z,5.47
2022-08-11T04:17:49.329Z,4.47
2022-08-11T04:18:30.530Z,6.25
2022-08-11T04:19:05.550Z,6.05
2022-08-11T04:20:13.489Z,7.95
2022-08-11T04:21:12.887Z,5.50
2022-08-11T04:22:03.477Z,3.97
2022-08-11T04:22:36.444Z,6.10
2022-08-11T04:24:35.360Z,4.20
2022-08-11T04:24:36.590Z,6.50
2022-08-11T04:25:22.404Z,5.25
2022-08-11T04:26:18.658Z,4.93
2022-08-11T04:26:51.071Z,5.70
2022-08-11T04:27:50.551Z,3.70
2022-08-11T04:28:50.190Z,5.97
2022-08-11T04:30:02.109Z,6.82
2022-08-11T04:30:40.468Z,6.70
2022-08-11T04:31:50.492Z,5.55
2022-08-11T04:32:46.739Z,3.65
2022-08-11T04:33:35.246Z,5.20
2022-08-11T04:34:26.099Z,5.18
2022-08-11T04:35:04.094Z,6.65
2022-08-11T04:35:54.549Z,4.43
2022-08-11T04:36:54.424Z,5.28
2022-08-11T04:37:45.168Z,5.30
2022-08-11T04:38:26.185Z,4.05
2022-08-11T04:39:05.705Z,3.90
2022-08-11T04:39:56.898Z,3.92
2022-08-11T04:40:44.085Z,3.88
2022-08-11T04:41:22.007Z,4.78
2022-08-11T04:42:20.706Z,4.72
2022-08-11T04:43:20.721Z,5.18
2022-08-11T04:44:16.094Z,5.70
2022-08-11T04:45:06.594Z,4.38
2022-08-11T04:45:50.768Z,5.88
2022-08-11T04:46:38.074Z,7.30
2022-08-11T04:48:04.085Z,6.05
2022-08-11T04:49:13.396Z,5.35
2022-08-11T04:50:29.492Z,4.97
2022-08-11T04:51:39.187Z,6.32
2022-08-11T04:52:35.959Z,4.85
2022-08-11T04:53:33.349Z,4.60
2022-08-11T04:54:42.724Z,4.97
2022-08-11T04:56:01.155Z,4.45
2022-08-11T04:56:54.534Z,4.65
2022-08-11T04:57:59.070Z,3.67
2022-08-11T04:58:55.929Z,5.20
2022-08-11T04:59:46.622Z,5.53
2022-08-11T05:00:37.265Z,7.43
2022-08-11T05:01:41.246Z,7.28
2022-08-11T05:02:32.298Z,4.38
2022-08-11T05:03:22.569Z,8.52
2022-08-11T05:04:03.493Z,6.45
2022-08-11T05:05:13.990Z,5.68
2022-08-11T05:06:01.375Z,3.45
2022-08-11T05:06:53.963Z,7.05
2022-08-11T05:07:25.956Z,5.93
2022-08-11T05:08:19.463Z,4.30
2022-08-11T05:08:56.800Z,4.97
2022-08-11T05:09:34.633Z,4.00
2022-08-11T05:10:06.571Z,6.68
2022-08-11T05:10:43.385Z,3.72
2022-08-11T05:11:15.427Z,3.58
2022-08-11T05:12:13.468Z,6.72
2022-08-11T05:13:36.599Z,5.50
2022-08-11T05:14:29.954Z,3.35
2022-08-11T05:15:22.104Z,4.88
2022-08-11T05:16:26.477Z,3.83
2022-08-11T05:17:18.277Z,5.47
2022-08-11T05:18:25.772Z,4.32
2022-08-11T05:19:16.532Z,4.97
2022-08-11T05:20:08.169Z,4.88
2022-08-11T05:21:07.086Z,4.88
2022-08-11T05:21:59.819Z,5.18
2022-08-11T05:22:52.008Z,5.28
2022-08-11T05:23:45.305Z,6.00
2022-08-11T05:24:41.077Z,7.10
2022-08-11T05:26:43.388Z,6.43
2022-08-11T05:26:49.548Z,6.68
2022-08-11T05:27:43.328Z,6.38
2022-08-11T05:28:35.283Z,4.75
2022-08-11T05:29:44.176Z,5.60
2022-08-11T05:30:35.342Z,4.47
2022-08-11T05:31:28.807Z,6.15
2022-08-11T05:32:20.080Z,9.60
2022-08-11T05:33:49.242Z,7.80
2022-08-11T05:34:54.145Z,8.27
2022-08-11T05:36:02.575Z,4.97
2022-08-11T05:36:30.067Z,4.75
2022-08-11T05:37:25.075Z,6.55
2022-08-11T05:38:17.255Z,7.63
2022-08-11T05:39:36.187Z,7.70
2022-08-11T05:40:27.962Z,5.47
2022-08-11T05:41:18.750Z,5.22
2022-08-11T05:42:09.607Z,5.50
2022-08-11T05:43:20.816Z,7.45
2022-08-11T05:44:20.216Z,6.72
2022-08-11T05:45:17.204Z,6.47
2022-08-11T05:46:18.116Z,6.82
2022-08-11T05:47:09.357Z,4.18
2022-08-11T05:48:00.615Z,6.90
2022-08-11T05:48:52.443Z,7.30
2022-08-11T05:49:43.698Z,8.02
2022-08-11T05:50:37.243Z,7.28
2022-08-11T05:51:30.308Z,9.65
2022-08-11T05:52:22.061Z,9.75
2022-08-11T05:53:23.096Z,7.47
2022-08-11T05:54:28.865Z,6.75
2022-08-11T05:55:23.957Z,6.97
2022-08-11T05:56:15.473Z,4.88
2022-08-11T05:56:55.947Z,7.05
2022-08-11T05:57:48.522Z,3.70
2022-08-11T05:58:21.740Z,5.65
2022-08-11T05:58:54.387Z,4.72
2022-08-11T05:59:28.458Z,6.35
2022-08-11T06:00:01.451Z,4.72
2022-08-11T06:00:41.873Z,6.30
2022-08-11T06:01:21.205Z,6.60
2022-08-11T06:01:53.534Z,4.00
2022-08-11T06:02:25.859Z,8.48
2022-08-11T06:02:59.173Z,6.05
2022-08-11T06:03:32.846Z,4.57
2022-08-11T06:04:16.236Z,8.70
2022-08-11T06:04:54.557Z,4.07
2022-08-11T06:05:54.185Z,4.53
2022-08-11T06:06:27.161Z,7.07
2022-08-11T06:07:00.752Z,6.13
2022-08-11T06:07:49.309Z,6.25
2022-08-11T06:08:32.619Z,4.95
2022-08-11T06:09:04.831Z,5.45
2022-08-11T06:09:38.227Z,5.20
2022-08-11T06:10:10.509Z,6.05
2022-08-11T06:10:44.466Z,4.22
2022-08-11T06:11:18.015Z,3.78
2022-08-11T06:11:50.711Z,8.27
2022-08-11T06:12:23.828Z,4.65
2022-08-11T06:12:57.296Z,4.03
2022-08-11T06:13:29.479Z,5.55
2022-08-11T06:14:02.222Z,7.28
2022-08-11T06:14:34.936Z,3.83
2022-08-11T06:15:08.977Z,4.57
2022-08-11T06:15:45.028Z,4.88
2022-08-11T06:16:21.831Z,5.60
2022-08-11T06:16:55.799Z,4.40
2022-08-11T06:17:39.250Z,4.13
2022-08-11T06:18:12.281Z,5.50
2022-08-11T06:18:48.141Z,5.25
2022-08-11T06:19:23.113Z,3.28
2022-08-11T06:20:06.809Z,4.72
2022-08-11T06:20:47.027Z,5.10
2022-08-11T06:21:19.123Z,2.80
2022-08-11T06:21:53.282Z,6.32
2022-08-11T06:22:25.837Z,4.45
2022-08-11T06:22:59.770Z,6.65
2022-08-11T06:23:32.745Z,4.95
2022-08-11T06:24:11.689Z,3.20
2022-08-11T06:24:51.325Z,4.45
2022-08-11T06:25:30.142Z,3.45
2022-08-11T06:26:02.297Z,5.10
2022-08-11T06:26:49.387Z,5.68
2022-08-11T06:27:28.902Z,3.85
2022-08-11T06:28:02.604Z,4.20
2022-08-11T06:28:36.968Z,4.97
2022-08-11T06:29:10.181Z,3.42
2022-08-11T06:29:55.190Z,4.10
2022-08-11T06:30:42.119Z,4.07
2022-08-11T06:31:16.653Z,3.50
2022-08-11T06:31:53.570Z,4.78
2022-08-11T06:32:29.023Z,5.65
2022-08-11T06:33:01.748Z,5.32
2022-08-11T06:33:36.753Z,2.63
2022-08-11T06:34:27.614Z,3.13
2022-08-11T06:35:06.061Z,4.32
2022-08-11T06:35:48.222Z,3.67
2022-08-11T06:36:23.270Z,6.43
2022-08-11T06:37:07.146Z,3.58
2022-08-11T06:37:43.521Z,5.72
2022-08-11T06:38:23.519Z,4.78
2022-08-11T06:39:14.718Z,4.38
2022-08-11T06:40:13.079Z,5.03
2022-08-11T06:41:15.192Z,3.80
2022-08-11T06:41:51.906Z,3.20
2022-08-11T06:42:42.734Z,3.42
2022-08-11T06:43:25.880Z,4.18
2022-08-11T06:44:06.957Z,6.30
2022-08-11T06:44:52.557Z,4.45
2022-08-11T06:45:33.563Z,3.85
2022-08-11T06:46:07.904Z,3.70
2022-08-11T06:46:44.322Z,3.95
2022-08-11T06:47:18.076Z,5.45
2022-08-11T06:47:50.415Z,4.22
2022-08-11T06:48:23.291Z,5.10
2022-08-11T06:48:56.223Z,3.65
2022-08-11T06:49:55.676Z,5.50
2022-08-11T06:50:47.361Z,4.65
2022-08-11T06:51:19.865Z,3.65
2022-08-11T06:51:51.951Z,5.32
2022-08-11T06:52:35.088Z,3.90
2022-08-11T06:53:20.365Z,4.50
2022-08-11T06:54:04.539Z,4.80
2022-08-11T06:54:41.427Z,5.93
2022-08-11T06:55:55.472Z,2.95
2022-08-11T06:56:54.104Z,3.92
2022-08-11T06:57:53.325Z,2.92
2022-08-11T06:58:46.941Z,3.22
2022-08-11T06:59:37.777Z,3.70
2022-08-11T07:00:29.170Z,2.30
2022-08-11T07:01:05.372Z,5.70
2022-08-11T07:01:47.698Z,3.33
2022-08-11T07:02:31.354Z,3.40
2022-08-11T07:03:09.151Z,3.42
2022-08-11T07:03:46.582Z,4.60
2022-08-11T07:04:27.966Z,3.72
2022-08-11T07:05:01.403Z,4.07
2022-08-11T07:05:46.511Z,4.78
2022-08-11T07:06:23.957Z,5.38
2022-08-11T07:07:20.066Z,3.38
2022-08-11T07:08:33.938Z,3.65
2022-08-11T07:09:32.753Z,4.03
2022-08-11T07:10:56.077Z,3.17
2022-08-11T07:11:55.928Z,3.55
2022-08-11T07:13:03.942Z,4.55
2022-08-11T07:13:56.597Z,3.08
2022-08-11T07:14:48.764Z,3.00
2022-08-11T07:16:12.580Z,4.35
2022-08-11T07:16:34.790Z,4.15
2022-08-11T07:17:08.829Z,3.30
2022-08-11T07:17:43.896Z,6.07
2022-08-11T07:18:43.777Z,4.05
2022-08-11T07:19:38.712Z,3.75
2022-08-11T07:20:30.974Z,3.38
2022-08-11T07:22:00.922Z,3.10
2022-08-11T07:22:39.494Z,3.75
2022-08-11T07:23:31.103Z,2.95
2022-08-11T07:24:22.873Z,2.90
2022-08-11T07:25:34.933Z,3.00
2022-08-11T07:26:25.370Z,3.25
2022-08-11T07:27:16.574Z,3.33
2022-08-11T07:28:10.427Z,3.90
2022-08-11T07:28:58.636Z,2.65
2022-08-11T07:29:31.681Z,3.25
2022-08-11T07:30:08.215Z,3.78
2022-08-11T07:30:41.634Z,3.47
2022-08-11T07:31:16.931Z,4.57
2022-08-11T07:31:51.098Z,3.92
2022-08-11T07:32:28.461Z,2.80
2022-08-11T07:33:01.700Z,3.80
2022-08-11T07:34:08.529Z,5.68
2022-08-11T07:34:40.496Z,2.67
2022-08-11T07:35:15.672Z,5.68
2022-08-11T07:35:51.922Z,4.38
2022-08-11T07:36:28.378Z,4.13
2022-08-11T07:37:04.228Z,4.03
2022-08-11T07:37:36.738Z,3.10
2022-08-11T07:38:12.568Z,3.15
2022-08-11T07:38:51.345Z,3.05
2022-08-11T07:39:25.740Z,4.50
2022-08-11T07:39:58.681Z,4.13
2022-08-11T07:40:30.893Z,3.15
2022-08-11T07:41:02.975Z,3.35
2022-08-11T07:41:35.279Z,4.45
2022-08-11T07:42:08.854Z,4.35
2022-08-11T07:42:46.479Z,4.43
2022-08-11T07:43:18.636Z,3.13
2022-08-11T07:43:52.439Z,2.95
2022-08-11T07:44:30.799Z,3.25
2022-08-11T07:45:25.289Z,2.17
2022-08-11T07:46:15.973Z,3.85
2022-08-11T07:47:07.703Z,2.92
2022-08-11T07:47:58.934Z,2.25
2022-08-11T07:48:51.648Z,3.22
2022-08-11T07:49:42.504Z,5.20
2022-08-11T07:50:33.760Z,3.17
2022-08-11T07:51:24.407Z,3.17
2022-08-11T07:52:15.208Z,2.47
2022-08-11T07:52:47.344Z,3.70
2022-08-11T07:53:24.969Z,2.20
2022-08-11T07:53:58.362Z,3.22
2022-08-11T07:54:51.310Z,3.53
2022-08-11T07:55:49.002Z,2.60
2022-08-11T07:56:28.110Z,3.72
2022-08-11T07:58:05.561Z,2.97
2022-08-11T07:58:45.708Z,2.30
2022-08-11T08:00:04.207Z,2.85
2022-08-11T08:01:09.905Z,3.60
2022-08-11T08:02:01.409Z,2.72
2022-08-11T08:02:52.588Z,2.20
2022-08-11T08:03:54.650Z,2.97
2022-08-11T08:04:47.487Z,3.17
2022-08-11T08:05:38.641Z,3.50
2022-08-11T08:06:36.064Z,2.80
2022-08-11T08:07:27.445Z,3.28
2022-08-11T08:08:20.504Z,4.25
2022-08-11T08:09:11.159Z,3.38
2022-08-11T08:10:02.564Z,2.60
2022-08-11T08:10:53.246Z,2.40
2022-08-11T08:11:44.076Z,5.18
2022-08-11T08:12:34.802Z,2.97
2022-08-11T08:13:26.166Z,2.95
2022-08-11T08:14:16.858Z,2.22
2022-08-11T08:15:08.493Z,2.92
2022-08-11T08:15:59.723Z,4.70
2022-08-11T08:16:50.561Z,3.15
2022-08-11T08:17:41.369Z,2.85
2022-08-11T08:18:26.508Z,3.13
2022-08-11T08:18:59.565Z,2.88
2022-08-11T08:19:31.912Z,2.70
2022-08-11T08:20:04.447Z,3.10
2022-08-11T08:20:38.551Z,2.00
2022-08-11T08:21:14.639Z,2.83
2022-08-11T08:21:47.213Z,2.60
2022-08-11T08:22:37.834Z,2.38
2022-08-11T08:23:11.464Z,2.47
2022-08-11T08:23:45.244Z,3.65
2022-08-11T08:24:20.069Z,3.00
2022-08-11T08:24:52.466Z,2.60
2022-08-11T08:25:28.476Z,5.97
2022-08-11T08:26:02.456Z,3.22
2022-08-11T08:26:52.876Z,3.15
2022-08-11T08:27:26.148Z,3.40
2022-08-11T08:28:02.067Z,3.72
2022-08-11T08:28:34.473Z,3.13
2022-08-11T08:29:25.727Z,3.65
2022-08-11T08:30:16.615Z,3.85
2022-08-11T08:30:52.725Z,2.50
2022-08-11T08:31:25.452Z,2.33
2022-08-11T08:31:57.771Z,3.17
2022-08-11T08:32:30.557Z,3.45
2022-08-11T08:33:03.243Z,2.30
2022-08-11T08:33:36.974Z,2.08
2022-08-11T08:34:09.617Z,3.25
2022-08-11T08:34:42.014Z,2.05
2022-08-11T08:35:14.932Z,3.53
2022-08-11T08:35:54.100Z,2.60
2022-08-11T08:36:26.833Z,2.95
2022-08-11T08:37:00.274Z,2.25
2022-08-11T08:37:46.605Z,2.45
2022-08-11T08:38:19.923Z,2.38
2022-08-11T08:38:56.728Z,4.00
2022-08-11T08:39:29.094Z,2.60
2022-08-11T08:40:01.235Z,3.45
2022-08-11T08:40:33.678Z,2.33
2022-08-11T08:41:06.311Z,3.78
2022-08-11T08:41:38.571Z,2.20
2022-08-11T08:42:11.761Z,4.15
2022-08-11T08:42:55.599Z,2.90
2022-08-11T08:43:27.871Z,2.28
2022-08-11T08:44:27.644Z,2.13
2022-08-11T08:45:06.324Z,2.20
2022-08-11T08:45:39.761Z,2.45
2022-08-11T08:46:13.644Z,2.90
2022-08-11T08:46:47.999Z,2.28
2022-08-11T08:47:41.111Z,2.90
2022-08-11T08:48:14.707Z,3.15
2022-08-11T08:48:47.505Z,2.50
2022-08-11T08:49:22.051Z,2.45
2022-08-11T08:49:59.489Z,2.58
2022-08-11T08:50:55.059Z,4.57
2022-08-11T08:52:01.346Z,2.58
2022-08-11T08:52:33.435Z,3.05
2022-08-11T08:53:08.741Z,2.58
2022-08-11T08:53:52.671Z,3.05
2022-08-11T08:54:34.024Z,2.50
2022-08-11T08:55:07.361Z,2.80
2022-08-11T08:55:45.303Z,2.95
2022-08-11T08:56:18.299Z,2.47
2022-08-11T08:56:56.049Z,2.53
2022-08-11T08:57:28.570Z,2.47
2022-08-11T08:58:00.956Z,2.58
2022-08-11T08:58:34.707Z,2.45
2022-08-11T08:59:07.192Z,2.40
2022-08-11T08:59:49.122Z,2.58
2022-08-11T09:00:23.600Z,2.92
2022-08-11T09:00:57.421Z,2.30
2022-08-11T09:01:31.191Z,2.28
2022-08-11T09:02:04.812Z,2.10
2022-08-11T09:02:37.525Z,2.50
2022-08-11T09:03:38.270Z,3.65
2022-08-11T09:04:11.175Z,3.00
2022-08-11T09:04:45.204Z,2.25
2022-08-11T09:05:18.197Z,2.60
2022-08-11T09:05:53.553Z,3.22
2022-08-11T09:06:25.621Z,2.15
2022-08-11T09:06:59.457Z,2.30
2022-08-11T09:07:39.685Z,3.03
2022-08-11T09:08:12.798Z,2.25
2022-08-11T09:08:45.538Z,2.40
2022-08-11T09:09:18.060Z,2.35
2022-08-11T09:09:54.500Z,2.22
2022-08-11T09:10:27.217Z,2.20
2022-08-11T09:11:18.643Z,3.47
2022-08-11T09:11:50.955Z,2.20
2022-08-11T09:12:38.439Z,2.20
2022-08-11T09:13:10.973Z,2.33
2022-08-11T09:13:44.624Z,2.28
2022-08-11T09:14:17.762Z,2.78
2022-08-11T09:15:05.622Z,3.80
2022-08-11T09:15:39.126Z,3.97
2022-08-11T09:16:11.933Z,3.30
2022-08-11T09:16:44.859Z,3.15
2022-08-11T09:17:23.768Z,2.45
2022-08-11T09:18:03.628Z,2.58
2022-08-11T09:18:36.963Z,2.13
2022-08-11T09:19:09.764Z,2.88
2022-08-11T09:19:41.821Z,2.10
2022-08-11T09:20:24.777Z,1.95
2022-08-11T09:20:56.939Z,2.53
2022-08-11T09:21:36.879Z,2.67
2022-08-11T09:22:38.365Z,2.70
2022-08-11T09:24:08.789Z,3.47
2022-08-11T09:24:39.738Z,3.60
2022-08-11T09:25:31.025Z,2.63
2022-08-11T09:26:22.307Z,2.88
2022-08-11T09:27:05.139Z,2.85
2022-08-11T09:27:39.044Z,2.58
2022-08-11T09:28:23.672Z,2.63
2022-08-11T09:28:55.772Z,3.13
2022-08-11T09:29:28.965Z,2.58
2022-08-11T09:30:01.238Z,2.65
2022-08-11T09:30:33.434Z,3.25
2022-08-11T09:31:06.588Z,2.65
2022-08-11T09:31:40.371Z,2.45
2022-08-11T09:32:12.982Z,2.15
2022-08-11T09:32:45.025Z,2.33
2022-08-11T09:33:17.225Z,2.50
2022-08-11T09:33:51.528Z,3.03
2022-08-11T09:34:24.366Z,2.67
2022-08-11T09:34:57.117Z,2.53
2022-08-11T09:35:30.445Z,2.70
2022-08-11T09:36:25.609Z,2.45
2022-08-11T09:37:54.841Z,2.20
2022-08-11T09:38:30.384Z,2.30
2022-08-11T09:39:21.812Z,2.60
2022-08-11T09:40:12.881Z,2.47
2022-08-11T09:40:47.015Z,4.53
2022-08-11T09:41:28.358Z,2.30
2022-08-11T09:42:23.199Z,2.28
2022-08-11T09:43:15.200Z,2.40
2022-08-11T09:44:06.010Z,2.78
2022-08-11T09:44:50.667Z,2.55
2022-08-11T09:45:23.285Z,2.20
2022-08-11T09:45:56.097Z,2.58
2022-08-11T09:46:28.964Z,2.47
2022-08-11T09:47:01.774Z,2.40
2022-08-11T09:47:35.189Z,2.10
2022-08-11T09:48:07.464Z,2.55
2022-08-11T09:48:41.055Z,2.00
2022-08-11T09:49:13.401Z,2.30
2022-08-11T09:49:49.035Z,2.72
2022-08-11T09:50:21.554Z,2.50
2022-08-11T09:50:55.923Z,2.35
2022-08-11T09:51:30.848Z,2.83
2022-08-11T09:52:05.476Z,3.05
2022-08-11T09:52:48.250Z,2.78
2022-08-11T09:53:40.937Z,2.65
2022-08-11T09:54:13.480Z,2.83
2022-08-11T09:54:48.181Z,2.97
2022-08-11T09:55:20.471Z,2.58